»·PEaware :: N335AK KRIF-38S

N335AK :: KRIF-38S

FLIGHT INFORMATION

Flight Status: Arrived
Operator: Privately registered:
United States
More flights under this callsign
Pilot: Gabor H. (24209)
Aircraft: Unknown
(EPIC)
More flights by this aircraft type
Origin: KRIF Richfield Mun
United States
Destination: 38S Deer Lodge-City-Co
United States
More flights between these airports :: More routes between these airports
Route: DTA V257 CPN
File this flight plan on PilotEdge
Remarks:
Altitude:
(Current/Filed)
28,000ft
Speed:
(Current/Filed)
325kts
Departed: 06-Aug-20 07:58 AM
Arrived: 06-Aug-20 09:29 AM
Distance/Time
Traveled:
460nm/1:31
Distance/Time
To Go:
Arrived

Flight Plot

Page will automatically refresh every two minutes.

Flight plan parsing failed; only flown route is shown


Map Options




Map Legend


Flown Route
Filed Route
Departure Airport
Arrival Airport
Navaid (VOR, NDB)
Fix

Horizontal Profiles

Position Reports

Time Latitude Longitude Heading Altitude Ground
Speed
06-Aug-20 07:47 38.744140 -112.097566 189 5289ft 0kts
06-Aug-20 07:48 38.744140 -112.097566 189 5289ft 0kts
06-Aug-20 07:49 38.744140 -112.097566 189 5289ft 0kts
06-Aug-20 07:50 38.744140 -112.097566 189 5289ft 0kts
06-Aug-20 07:51 38.744140 -112.097566 189 5289ft 0kts
06-Aug-20 07:52 38.744140 -112.097566 189 5289ft 0kts
06-Aug-20 07:53 38.744140 -112.097566 189 5289ft 0kts
06-Aug-20 07:54 38.744030 -112.097566 165 5288ft 3kts
06-Aug-20 07:55 38.743160 -112.096910 138 5283ft 0kts
06-Aug-20 07:57 38.743160 -112.096910 138 5283ft 0kts
06-Aug-20 07:58 38.738899 -112.098503 211 5284ft 101kts
06-Aug-20 07:59 38.705307 -112.095806 106 7729ft 177kts
06-Aug-20 08:00 38.744920 -112.052006 25 10132ft 232kts
06-Aug-20 08:01 38.804866 -112.014022 25 12624ft 246kts
06-Aug-20 08:02 38.867232 -112.004087 310 14731ft 246kts
06-Aug-20 08:03 38.918386 -112.064604 313 16674ft 254kts
06-Aug-20 08:04 38.971709 -112.125515 313 18361ft 261kts
06-Aug-20 08:05 39.026250 -112.187892 312 19896ft 264kts
06-Aug-20 08:06 39.080732 -112.250348 311 21405ft 262kts
06-Aug-20 08:07 39.134702 -112.312343 311 22892ft 257kts
06-Aug-20 08:08 39.187475 -112.373089 310 24355ft 251kts
06-Aug-20 08:09 39.238574 -112.432032 310 25808ft 244kts
06-Aug-20 08:10 39.289538 -112.490961 310 26994ft 248kts
06-Aug-20 08:11 39.362395 -112.500003 358 27990ft 278kts
06-Aug-20 08:12 39.443887 -112.492840 359 28067ft 311kts
06-Aug-20 08:12 39.518081 -112.486114 359 28064ft 328kts
06-Aug-20 08:14 39.626237 -112.476297 359 28063ft 339kts
06-Aug-20 08:15 39.720807 -112.467691 359 28063ft 344kts
06-Aug-20 08:15 39.800452 -112.460429 359 28063ft 345kts
06-Aug-20 08:17 39.912397 -112.450196 0 28041ft 347kts
06-Aug-20 08:17 39.992431 -112.442857 0 28010ft 348kts
06-Aug-20 08:19 40.105011 -112.432506 0 27999ft 348kts
06-Aug-20 08:19 40.185418 -112.425090 0 27992ft 347kts
06-Aug-20 08:20 40.281588 -112.416186 0 27982ft 347kts
06-Aug-20 08:22 40.393560 -112.410053 354 27979ft 344kts
06-Aug-20 08:22 40.473279 -112.411791 354 27979ft 344kts
06-Aug-20 08:23 40.568791 -112.413927 354 27979ft 345kts
06-Aug-20 08:24 40.664513 -112.416074 354 27980ft 345kts
06-Aug-20 08:25 40.760493 -112.418233 354 27981ft 345kts
06-Aug-20 08:26 40.856146 -112.420377 354 27981ft 345kts
06-Aug-20 08:27 40.951966 -112.422507 354 27982ft 345kts
06-Aug-20 08:28 41.047944 -112.424651 354 27983ft 345kts
06-Aug-20 08:29 41.143360 -112.426867 354 27977ft 344kts
06-Aug-20 08:30 41.238655 -112.429036 354 27977ft 343kts
06-Aug-20 08:31 41.333848 -112.431202 354 27978ft 343kts
06-Aug-20 08:32 41.428849 -112.433369 354 27979ft 342kts
06-Aug-20 08:33 41.524110 -112.435552 354 27979ft 343kts
06-Aug-20 08:34 41.619327 -112.437746 354 27980ft 343kts
06-Aug-20 08:35 41.714335 -112.439942 354 27980ft 343kts
06-Aug-20 08:36 41.809774 -112.442154 354 27981ft 343kts
06-Aug-20 08:37 41.904999 -112.444368 354 27982ft 343kts
06-Aug-20 08:38 42.000405 -112.446591 354 27984ft 344kts
06-Aug-20 08:39 42.095851 -112.448824 354 27987ft 344kts
06-Aug-20 08:40 42.191536 -112.451071 353 27977ft 343kts
06-Aug-20 08:41 42.283606 -112.476123 342 27974ft 337kts
06-Aug-20 08:42 42.375032 -112.503341 342 27970ft 337kts
06-Aug-20 08:43 42.466410 -112.530631 342 27969ft 337kts
06-Aug-20 08:44 42.557819 -112.558012 342 27970ft 337kts
06-Aug-20 08:45 42.649072 -112.585429 342 27970ft 338kts
06-Aug-20 08:46 42.741075 -112.613154 342 27971ft 338kts
06-Aug-20 08:47 42.832553 -112.640802 342 27971ft 338kts
06-Aug-20 08:48 42.926003 -112.632373 11 27972ft 349kts
06-Aug-20 08:49 43.019893 -112.598906 12 27973ft 349kts
06-Aug-20 08:50 43.114088 -112.565139 12 27969ft 349kts
06-Aug-20 08:51 43.207643 -112.531502 12 27968ft 348kts
06-Aug-20 08:52 43.301343 -112.497707 12 27971ft 348kts
06-Aug-20 08:53 43.394988 -112.463825 12 27978ft 348kts
06-Aug-20 08:54 43.488344 -112.429944 12 27986ft 348kts
06-Aug-20 08:55 43.581814 -112.395909 12 27989ft 349kts
06-Aug-20 08:56 43.675536 -112.361680 12 27990ft 349kts
06-Aug-20 08:57 43.769053 -112.327406 12 27991ft 349kts
06-Aug-20 08:58 43.862937 -112.292893 12 27993ft 349kts
06-Aug-20 08:59 43.956600 -112.258344 12 27999ft 349kts
06-Aug-20 09:00 44.050388 -112.223638 12 28002ft 350kts
06-Aug-20 09:01 44.144434 -112.225343 344 27997ft 340kts
06-Aug-20 09:02 44.236839 -112.251715 344 27997ft 340kts
06-Aug-20 09:03 44.329024 -112.278203 344 27997ft 340kts
06-Aug-20 09:04 44.421383 -112.304827 344 28007ft 339kts
06-Aug-20 09:05 44.513927 -112.331591 344 28016ft 339kts
06-Aug-20 09:06 44.606022 -112.358310 344 28017ft 340kts
06-Aug-20 09:07 44.698600 -112.385256 344 28017ft 340kts
06-Aug-20 09:08 44.791122 -112.412272 344 28018ft 340kts
06-Aug-20 09:09 44.883344 -112.439286 344 28018ft 340kts
06-Aug-20 09:10 44.975949 -112.466505 344 28019ft 340kts
06-Aug-20 09:11 45.069009 -112.493967 344 27590ft 354kts
06-Aug-20 09:12 45.169550 -112.523709 344 25977ft 380kts
06-Aug-20 09:13 45.274185 -112.553605 346 24276ft 389kts
06-Aug-20 09:14 45.381044 -112.580637 347 22550ft 392kts
06-Aug-20 09:15 45.488309 -112.607870 347 20816ft 392kts
06-Aug-20 09:16 45.594448 -112.634900 347 19097ft 378kts
06-Aug-20 09:17 45.695394 -112.660736 346 17470ft 361kts
06-Aug-20 09:18 45.793041 -112.685811 346 15898ft 355kts
06-Aug-20 09:19 45.889504 -112.710670 347 14323ft 353kts
06-Aug-20 09:20 45.983797 -112.735040 347 12126ft 329kts
06-Aug-20 09:21 46.066960 -112.756710 346 11988ft 289kts
06-Aug-20 09:22 46.143766 -112.776913 346 9504ft 265kts
06-Aug-20 09:23 46.209655 -112.782006 8 8129ft 208kts
06-Aug-20 09:24 46.264393 -112.765335 7 6885ft 188kts
06-Aug-20 09:25 46.313974 -112.762349 16 6657ft 155kts
06-Aug-20 09:26 46.344782 -112.741160 28 5575ft 99kts
06-Aug-20 09:27 46.370683 -112.745048 321 4962ft 106kts
06-Aug-20 09:28 46.385983 -112.763695 318 4694ft 23kts
06-Aug-20 09:29 46.389274 -112.766377 47 4694ft 5kts
06-Aug-20 09:30 46.389995 -112.764618 229 4694ft 3kts
06-Aug-20 09:31 46.389965 -112.764670 229 4694ft 0kts

Navigation Log

Ident Type
Flight plan parsing failed, navigation log unavailable